createdAt,value
2022-11-16T00:01:28.027Z,24.98
2022-11-16T00:05:49.453Z,24.05
2022-11-16T00:10:12.187Z,20.73
2022-11-16T00:14:35.944Z,27.15
2022-11-16T00:19:01.206Z,22.95
2022-11-16T00:23:23.801Z,24.38
2022-11-16T00:27:45.448Z,26.70
2022-11-16T00:32:07.293Z,30.63
2022-11-16T00:36:29.515Z,26.10
2022-11-16T00:40:51.617Z,27.27
2022-11-16T00:45:13.501Z,24.38
2022-11-16T00:49:35.856Z,25.55
2022-11-16T00:53:57.744Z,24.27
2022-11-16T00:58:19.739Z,23.27
2022-11-16T01:02:46.414Z,22.60
2022-11-16T01:07:08.390Z,24.83
2022-11-16T01:11:49.023Z,29.05
2022-11-16T01:16:18.267Z,27.60
2022-11-16T01:20:41.365Z,25.30
2022-11-16T01:25:03.523Z,24.85
2022-11-16T01:29:26.893Z,27.92
2022-11-16T01:33:52.003Z,24.20
2022-11-16T01:38:18.251Z,24.02
2022-11-16T01:42:40.729Z,24.83
2022-11-16T01:47:08.688Z,24.27
2022-11-16T01:51:33.342Z,22.10
2022-11-16T01:55:55.637Z,22.52
2022-11-16T02:00:28.512Z,21.73
2022-11-16T02:05:06.185Z,20.85
2022-11-16T02:10:13.982Z,21.05
2022-11-16T02:15:26.945Z,23.77
2022-11-16T02:20:28.946Z,21.83
2022-11-16T02:25:26.992Z,17.77
2022-11-16T02:29:53.466Z,15.95
2022-11-16T02:34:18.451Z,13.93
2022-11-16T02:38:47.898Z,18.20
2022-11-16T02:43:15.575Z,13.88
2022-11-16T02:47:40.779Z,12.60
2022-11-16T02:52:03.265Z,12.23
2022-11-16T02:56:25.855Z,10.23
2022-11-16T03:01:14.219Z,10.80
2022-11-16T03:05:55.139Z,10.65
2022-11-16T03:10:40.356Z,10.13
2022-11-16T03:15:07.370Z,9.30
2022-11-16T03:19:44.166Z,10.25
2022-11-16T03:24:07.879Z,9.30
2022-11-16T03:28:42.448Z,10.57
2022-11-16T03:33:27.689Z,8.45
2022-11-16T03:37:52.871Z,8.98
2022-11-16T03:42:17.271Z,9.80
2022-11-16T03:46:42.214Z,10.05
2022-11-16T03:51:09.033Z,12.75
2022-11-16T03:55:30.975Z,9.60
2022-11-16T03:59:53.873Z,11.38
2022-11-16T04:04:35.907Z,11.80
2022-11-16T04:09:17.815Z,12.07
2022-11-16T04:13:58.762Z,13.70
2022-11-16T04:18:39.369Z,13.35
2022-11-16T04:23:30.012Z,14.38
2022-11-16T04:28:12.023Z,12.68
2022-11-16T04:32:53.180Z,14.30
2022-11-16T04:37:35.540Z,13.27
2022-11-16T04:42:17.438Z,11.95
2022-11-16T04:46:59.594Z,12.45
2022-11-16T04:51:22.149Z,10.85
2022-11-16T04:55:44.114Z,11.07
2022-11-16T05:00:07.946Z,12.25
2022-11-16T05:04:31.482Z,11.77
2022-11-16T05:08:53.544Z,11.63
2022-11-16T05:13:18.447Z,11.73
2022-11-16T05:17:40.732Z,11.88
2022-11-16T05:22:08.407Z,10.18
2022-11-16T05:26:30.261Z,10.52
2022-11-16T05:30:52.263Z,11.40
2022-11-16T05:35:17.795Z,9.95
2022-11-16T05:39:39.689Z,11.13
2022-11-16T05:44:01.637Z,10.75
2022-11-16T05:48:23.573Z,11.52
2022-11-16T05:52:45.501Z,10.57
2022-11-16T05:57:07.483Z,10.18
2022-11-16T06:01:29.392Z,17.88
2022-11-16T06:05:54.559Z,11.13
2022-11-16T06:10:20.500Z,8.80
2022-11-16T06:14:45.015Z,10.55
2022-11-16T06:19:07.173Z,10.52
2022-11-16T06:23:29.317Z,11.25
2022-11-16T06:27:51.897Z,11.50
2022-11-16T06:32:14.872Z,11.30
2022-11-16T06:36:37.899Z,10.38
2022-11-16T06:41:00.027Z,12.23
2022-11-16T06:45:24.909Z,10.65
2022-11-16T06:49:50.812Z,11.73
2022-11-16T06:54:16.640Z,10.50
2022-11-16T06:58:41.609Z,10.75
2022-11-16T07:03:06.098Z,8.70
2022-11-16T07:07:27.799Z,12.07
2022-11-16T07:11:50.526Z,9.65
2022-11-16T07:16:13.723Z,12.00
2022-11-16T07:20:41.359Z,16.05
2022-11-16T07:25:04.016Z,11.38
2022-11-16T07:29:25.693Z,10.82
2022-11-16T07:34:16.799Z,9.23
2022-11-16T07:38:46.777Z,11.07
2022-11-16T07:43:09.934Z,9.95
2022-11-16T07:48:01.701Z,9.85
2022-11-16T07:52:46.702Z,10.32
2022-11-16T07:57:18.088Z,9.88
2022-11-16T08:01:40.015Z,8.35
2022-11-16T08:06:08.107Z,9.82
2022-11-16T08:10:31.300Z,9.13
2022-11-16T08:14:53.836Z,8.93
2022-11-16T08:19:16.060Z,9.07
2022-11-16T08:23:40.369Z,9.13
2022-11-16T08:28:03.275Z,7.97
2022-11-16T08:32:29.843Z,8.50
2022-11-16T08:36:52.021Z,9.95
2022-11-16T08:41:21.132Z,9.57
2022-11-16T08:45:48.488Z,9.55
2022-11-16T08:50:10.786Z,10.00
2022-11-16T08:54:33.449Z,8.45
2022-11-16T08:58:58.916Z,9.32
2022-11-16T09:03:21.453Z,9.82
2022-11-16T09:07:46.320Z,10.45
2022-11-16T09:12:08.221Z,8.02
2022-11-16T09:16:29.858Z,8.57
2022-11-16T09:20:52.061Z,10.23
2022-11-16T09:25:13.997Z,7.65
2022-11-16T09:29:35.623Z,11.35
2022-11-16T09:33:59.260Z,9.48
2022-11-16T09:38:30.538Z,10.00
2022-11-16T09:43:46.981Z,8.60
2022-11-16T09:48:13.443Z,8.52
2022-11-16T09:52:46.409Z,9.73
2022-11-16T09:57:16.403Z,6.57
2022-11-16T10:01:51.809Z,6.38
2022-11-16T10:07:20.469Z,7.25
2022-11-16T10:12:26.761Z,9.98
2022-11-16T10:17:05.200Z,7.95
2022-11-16T10:22:09.031Z,7.53
2022-11-16T10:27:22.490Z,8.27
2022-11-16T10:32:22.209Z,8.23
2022-11-16T10:36:45.229Z,8.10
2022-11-16T10:41:35.424Z,8.05
2022-11-16T10:46:18.797Z,8.38
2022-11-16T10:50:48.303Z,8.05
2022-11-16T10:55:15.917Z,8.88
2022-11-16T10:59:55.483Z,8.40
2022-11-16T11:04:24.687Z,8.57
2022-11-16T11:08:46.447Z,5.55
2022-11-16T11:13:11.420Z,8.32
2022-11-16T11:17:35.920Z,7.38
2022-11-16T11:22:02.015Z,6.85
2022-11-16T11:26:50.355Z,8.27
2022-11-16T11:31:26.191Z,6.30
2022-11-16T11:36:05.111Z,9.38
2022-11-16T11:40:29.573Z,10.93
2022-11-16T11:45:02.407Z,9.30
2022-11-16T11:49:36.324Z,8.63
2022-11-16T11:54:02.351Z,12.82
2022-11-16T11:58:31.272Z,10.73
2022-11-16T12:03:41.039Z,14.82
2022-11-16T12:08:28.384Z,13.52
2022-11-16T12:13:27.272Z,12.13
2022-11-16T12:18:29.215Z,11.75
2022-11-16T12:23:35.594Z,8.80
2022-11-16T12:28:38.965Z,9.98
2022-11-16T12:33:46.945Z,8.82
2022-11-16T12:38:29.438Z,10.57
2022-11-16T12:43:03.690Z,12.52
2022-11-16T12:47:28.363Z,10.57
2022-11-16T12:51:59.305Z,12.13
2022-11-16T12:56:26.732Z,11.23
2022-11-16T13:00:51.017Z,10.75
2022-11-16T13:05:21.016Z,16.08
2022-11-16T13:09:51.687Z,11.13
2022-11-16T13:14:46.941Z,12.55
2022-11-16T13:19:14.300Z,12.10
2022-11-16T13:24:02.401Z,10.52
2022-11-16T13:28:36.102Z,11.57
2022-11-16T13:33:34.821Z,14.18
2022-11-16T13:37:56.926Z,13.65
2022-11-16T13:42:18.854Z,15.15
2022-11-16T13:46:57.692Z,16.90
2022-11-16T13:51:23.244Z,13.43
2022-11-16T13:55:46.625Z,12.18
2022-11-16T14:00:20.139Z,15.30
2022-11-16T14:05:01.932Z,16.33
2022-11-16T14:09:49.527Z,15.27
2022-11-16T14:14:33.023Z,12.80
2022-11-16T14:19:00.904Z,13.07
2022-11-16T14:23:47.246Z,13.00
2022-11-16T14:28:44.219Z,15.80
2022-11-16T14:33:12.771Z,13.57
2022-11-16T14:37:42.351Z,15.40
2022-11-16T14:42:21.622Z,17.00
2022-11-16T14:46:44.784Z,16.35
2022-11-16T14:51:16.420Z,16.10
2022-11-16T14:55:45.179Z,14.55
2022-11-16T15:00:18.085Z,16.40
2022-11-16T15:04:40.451Z,15.10
2022-11-16T15:09:05.441Z,14.00
2022-11-16T15:13:28.031Z,16.90
2022-11-16T15:18:12.333Z,14.48
2022-11-16T15:22:42.232Z,15.20
2022-11-16T15:27:06.831Z,15.75
2022-11-16T15:31:29.758Z,17.02
2022-11-16T15:35:54.301Z,17.52
2022-11-16T15:40:18.828Z,20.10
2022-11-16T15:44:42.459Z,15.55
2022-11-16T15:49:04.577Z,17.42
2022-11-16T15:53:54.539Z,19.15
2022-11-16T15:58:26.674Z,18.52
2022-11-16T16:02:48.905Z,20.20
2022-11-16T16:07:11.342Z,18.75
2022-11-16T16:11:34.170Z,20.40
2022-11-16T16:16:30.399Z,21.38
2022-11-16T16:20:52.462Z,25.27
2022-11-16T16:25:33.594Z,20.13
2022-11-16T16:29:58.285Z,22.65
2022-11-16T16:34:19.998Z,20.63
2022-11-16T16:38:42.157Z,20.30
2022-11-16T16:43:04.401Z,22.90
2022-11-16T16:47:26.474Z,20.85
2022-11-16T16:51:48.373Z,21.50
2022-11-16T16:56:17.214Z,20.95
2022-11-16T17:00:39.599Z,40.72
2022-11-16T17:05:01.309Z,21.17
2022-11-16T17:09:23.460Z,18.17
2022-11-16T17:13:45.263Z,35.58
2022-11-16T17:18:07.268Z,20.55
2022-11-16T17:22:29.208Z,23.33
2022-11-16T17:26:51.000Z,33.80
2022-11-16T17:31:14.225Z,27.42
2022-11-16T17:35:36.214Z,18.90
2022-11-16T17:39:58.270Z,17.73
2022-11-16T17:44:22.151Z,19.60
2022-11-16T17:48:47.198Z,25.95
2022-11-16T17:53:09.261Z,22.42
2022-11-16T17:57:31.157Z,24.73
2022-11-16T18:01:53.103Z,24.58
2022-11-16T18:06:18.919Z,21.98
2022-11-16T18:10:41.087Z,21.42
2022-11-16T18:19:45.359Z,19.40
2022-11-16T18:24:08.578Z,19.40
2022-11-16T18:28:30.640Z,19.17
2022-11-16T18:32:54.177Z,20.38
2022-11-16T18:37:16.103Z,22.85
2022-11-16T18:41:50.110Z,18.00
2022-11-16T18:46:17.157Z,17.08
2022-11-16T18:50:39.243Z,16.92
2022-11-16T18:55:01.162Z,16.23
2022-11-16T18:59:23.837Z,16.00
2022-11-16T19:03:46.477Z,15.82
2022-11-16T19:08:08.454Z,15.25
2022-11-16T19:12:30.444Z,15.23
2022-11-16T19:16:56.957Z,14.25
2022-11-16T19:21:20.099Z,15.68
2022-11-16T19:25:42.040Z,14.98
2022-11-16T19:30:05.284Z,18.75
2022-11-16T19:34:32.988Z,14.70
2022-11-16T19:38:55.684Z,14.68
2022-11-16T19:43:17.821Z,17.98
2022-11-16T19:47:39.935Z,16.42
2022-11-16T19:52:01.679Z,16.27
2022-11-16T19:56:24.721Z,16.42
2022-11-16T20:00:46.770Z,18.60
2022-11-16T20:05:09.616Z,16.58
2022-11-16T20:09:31.713Z,34.80
2022-11-16T20:13:56.420Z,20.33
2022-11-16T20:18:18.757Z,19.25
2022-11-16T20:22:40.471Z,16.38
2022-11-16T20:27:02.444Z,23.30
2022-11-16T20:31:27.139Z,21.70
2022-11-16T20:35:49.585Z,23.33
2022-11-16T20:40:12.189Z,21.52
2022-11-16T20:44:34.024Z,22.17
2022-11-16T20:48:59.382Z,21.60
2022-11-16T20:53:22.425Z,21.75
2022-11-16T20:57:44.164Z,20.95
2022-11-16T21:02:06.299Z,27.55
2022-11-16T21:06:28.482Z,23.75
2022-11-16T21:10:50.600Z,23.42
2022-11-16T21:15:12.653Z,24.35
2022-11-16T21:19:34.759Z,25.42
2022-11-16T21:23:56.829Z,26.02
2022-11-16T21:28:24.178Z,25.45
2022-11-16T21:32:47.313Z,25.33
2022-11-16T21:37:09.084Z,23.60
2022-11-16T21:41:31.815Z,25.90
2022-11-16T21:46:00.544Z,24.02
2022-11-16T21:50:31.776Z,21.52
2022-11-16T21:55:00.243Z,19.60
2022-11-16T21:59:22.051Z,19.23
2022-11-16T22:03:44.936Z,21.48
2022-11-16T22:08:11.655Z,19.65
2022-11-16T22:12:34.352Z,20.98
2022-11-16T22:16:56.097Z,19.35
2022-11-16T22:21:18.315Z,21.92
2022-11-16T22:25:40.309Z,22.77
2022-11-16T22:30:02.222Z,20.38
2022-11-16T22:34:24.134Z,25.00
2022-11-16T22:38:45.990Z,23.70
2022-11-16T22:43:08.003Z,26.55
2022-11-16T22:47:30.000Z,22.05
2022-11-16T22:51:51.602Z,24.95
2022-11-16T22:56:13.751Z,26.15
2022-11-16T23:00:40.601Z,29.42
2022-11-16T23:05:04.165Z,26.98
2022-11-16T23:09:26.067Z,24.40
2022-11-16T23:14:07.367Z,22.85
2022-11-16T23:18:29.373Z,20.70
2022-11-16T23:23:11.286Z,22.33
2022-11-16T23:27:44.612Z,21.15
2022-11-16T23:32:06.558Z,22.45
2022-11-16T23:36:28.210Z,19.75
2022-11-16T23:40:50.151Z,18.63
2022-11-16T23:45:12.063Z,21.55
2022-11-16T23:49:34.133Z,17.13
2022-11-16T23:53:56.116Z,16.40
2022-11-16T23:58:20.975Z,19.65
